createdAt,value
2023-04-19T00:02:18.587Z,102554.19
2023-04-19T00:07:24.110Z,102547.03
2023-04-19T00:12:27.828Z,102542.63
2023-04-19T00:17:31.873Z,102541.50
2023-04-19T00:22:37.007Z,102536.34
2023-04-19T00:27:40.752Z,102529.81
2023-04-19T00:32:44.519Z,102536.56
2023-04-19T00:37:49.659Z,102533.09
2023-04-19T00:42:53.381Z,102523.72
2023-04-19T00:47:57.312Z,102528.56
2023-04-19T00:53:02.723Z,102523.72
2023-04-19T00:58:08.672Z,102522.28
2023-04-19T01:03:13.605Z,102528.34
2023-04-19T01:08:18.871Z,102524.72
2023-04-19T01:13:22.739Z,102527.41
2023-04-19T01:18:29.385Z,102521.66
2023-04-19T01:23:34.537Z,102515.72
2023-04-19T01:28:38.290Z,102518.50
2023-04-19T01:33:42.036Z,102515.22
2023-04-19T01:38:47.809Z,102520.72
2023-04-19T01:43:51.524Z,102514.56
2023-04-19T01:48:55.228Z,102524.34
2023-04-19T01:54:01.634Z,102519.41
2023-04-19T01:59:05.341Z,102520.41
2023-04-19T02:04:09.089Z,102513.22
2023-04-19T02:09:14.152Z,102511.97
2023-04-19T02:14:18.898Z,102515.75
2023-04-19T02:19:22.644Z,102509.00
2023-04-19T02:24:27.934Z,102491.78
2023-04-19T02:29:31.733Z,102486.63
2023-04-19T02:34:35.454Z,102484.72
2023-04-19T02:39:42.626Z,102497.66
2023-04-19T02:44:46.338Z,102494.13
2023-04-19T02:49:51.284Z,102489.84
2023-04-19T02:54:56.741Z,102487.47
2023-04-19T03:00:00.450Z,102494.81
2023-04-19T03:05:06.539Z,102491.53
2023-04-19T03:10:12.041Z,102499.91
2023-04-19T03:15:16.046Z,102490.94
2023-04-19T03:20:20.911Z,102498.81
2023-04-19T03:25:26.559Z,102496.12
2023-04-19T03:30:31.863Z,102494.44
2023-04-19T03:35:36.193Z,102488.84
2023-04-19T03:40:44.536Z,102493.91
2023-04-19T03:45:50.247Z,102484.47
2023-04-19T03:50:54.174Z,102485.34
2023-04-19T03:55:59.972Z,102487.75
2023-04-19T04:01:05.417Z,102483.81
2023-04-19T04:06:09.316Z,102482.00
2023-04-19T04:11:14.543Z,102476.50
2023-04-19T04:16:19.560Z,102479.09
2023-04-19T04:21:24.783Z,102487.47
2023-04-19T04:26:33.878Z,102484.97
2023-04-19T04:31:38.420Z,102489.38
2023-04-19T04:36:42.280Z,102489.03
2023-04-19T04:41:50.070Z,102497.69
2023-04-19T04:46:53.818Z,102500.84
2023-04-19T04:51:57.921Z,102491.97
2023-04-19T04:57:05.042Z,102505.03
2023-04-19T05:02:09.062Z,102512.47
2023-04-19T05:07:12.862Z,102518.88
2023-04-19T05:12:18.252Z,102517.66
2023-04-19T05:17:22.160Z,102518.56
2023-04-19T05:22:26.408Z,102515.06
2023-04-19T05:27:32.318Z,102518.56
2023-04-19T05:32:36.319Z,102517.56
2023-04-19T05:37:41.503Z,102527.25
2023-04-19T05:42:46.913Z,102526.34
2023-04-19T05:47:51.528Z,102525.53
2023-04-19T05:52:57.258Z,102525.66
2023-04-19T05:58:02.842Z,102523.62
2023-04-19T06:03:07.304Z,102522.75
2023-04-19T06:08:11.479Z,102521.28
2023-04-19T06:13:16.828Z,102534.19
2023-04-19T06:18:20.617Z,102532.97
2023-04-19T06:23:25.514Z,102541.28
2023-04-19T06:28:30.597Z,102536.31
2023-04-19T06:33:34.309Z,102541.81
2023-04-19T06:38:38.930Z,102540.59
2023-04-19T06:43:44.834Z,102532.72
2023-04-19T06:48:48.782Z,102540.62
2023-04-19T06:53:52.536Z,102531.47
2023-04-19T06:58:57.610Z,102525.63
2023-04-19T07:04:01.889Z,102536.66
2023-04-19T07:09:07.236Z,102533.25
2023-04-19T07:14:12.348Z,102529.59
2023-04-19T07:19:19.171Z,102519.66
2023-04-19T07:24:23.024Z,102526.13
2023-04-19T07:29:28.165Z,102528.94
2023-04-19T07:34:31.904Z,102527.75
2023-04-19T07:39:35.765Z,102525.22
2023-04-19T07:44:40.808Z,102514.97
2023-04-19T07:49:44.688Z,102508.91
2023-04-19T07:54:48.438Z,102518.81
2023-04-19T07:59:57.893Z,102519.13
2023-04-19T08:05:02.519Z,102514.94
2023-04-19T08:10:07.721Z,102510.81
2023-04-19T08:15:29.620Z,102509.38
2023-04-19T08:20:36.940Z,102508.09
2023-04-19T08:25:40.662Z,102512.56
2023-04-19T08:30:46.004Z,102513.94
2023-04-19T08:35:50.035Z,102508.06
2023-04-19T08:40:56.101Z,102500.06
2023-04-19T08:46:01.277Z,102502.97
2023-04-19T08:51:06.386Z,102509.44
2023-04-19T08:56:17.908Z,102484.81
2023-04-19T09:01:36.133Z,102496.59
2023-04-19T09:06:41.765Z,102483.66
2023-04-19T09:11:45.945Z,102488.69
2023-04-19T09:16:52.192Z,102483.28
2023-04-19T09:21:56.444Z,102484.03
2023-04-19T09:27:00.383Z,102478.75
2023-04-19T09:32:06.146Z,102480.97
2023-04-19T09:37:21.452Z,102478.06
2023-04-19T09:48:04.268Z,102488.88
2023-04-19T09:53:08.372Z,102482.16
2023-04-19T09:58:12.157Z,102473.91
2023-04-19T10:03:18.360Z,102464.75
2023-04-19T10:08:22.238Z,102454.84
2023-04-19T10:13:27.100Z,102447.22
2023-04-19T10:18:33.388Z,102447.28
2023-04-19T10:23:38.340Z,102459.78
2023-04-19T10:28:42.842Z,102454.59
2023-04-19T10:33:49.350Z,102462.53
2023-04-19T10:38:53.612Z,102456.31
2023-04-19T10:44:11.308Z,102467.56
2023-04-19T10:49:16.728Z,102457.56
2023-04-19T10:54:31.477Z,102448.66
2023-04-19T10:59:36.662Z,102447.91
2023-04-19T11:05:14.444Z,102435.75
2023-04-19T11:10:29.928Z,102435.25
2023-04-19T11:15:33.620Z,102433.19
2023-04-19T11:20:38.668Z,102421.12
2023-04-19T11:25:42.428Z,102429.69
2023-04-19T11:30:46.531Z,102427.69
2023-04-19T11:35:51.786Z,102405.16
2023-04-19T11:41:00.451Z,102426.00
2023-04-19T11:46:07.739Z,102414.09
2023-04-19T11:51:16.167Z,102408.47
2023-04-19T11:56:19.904Z,102405.87
2023-04-19T12:01:25.195Z,102409.91
2023-04-19T12:06:32.063Z,102398.31
2023-04-19T12:11:45.558Z,102381.09
2023-04-19T12:17:07.578Z,102378.53
2023-04-19T12:22:19.629Z,102378.16
2023-04-19T12:27:23.362Z,102371.56
2023-04-19T12:32:27.277Z,102370.16
2023-04-19T12:37:32.592Z,102355.34
2023-04-19T12:42:36.327Z,102352.84
2023-04-19T12:47:40.350Z,102360.91
2023-04-19T12:52:46.538Z,102343.16
2023-04-19T12:57:50.239Z,102341.41
2023-04-19T13:02:54.455Z,102345.97
2023-04-19T13:08:00.232Z,102336.22
2023-04-19T13:13:03.977Z,102323.84
2023-04-19T13:18:07.872Z,102322.06
2023-04-19T13:23:12.956Z,102314.09
2023-04-19T13:28:16.717Z,102301.56
2023-04-19T13:33:20.533Z,102305.78
2023-04-19T13:38:25.820Z,102286.44
2023-04-19T13:43:29.502Z,102294.06
2023-04-19T13:48:33.304Z,102289.03
2023-04-19T13:53:39.731Z,102265.94
2023-04-19T13:58:43.421Z,102274.75
2023-04-19T14:03:47.366Z,102265.13
2023-04-19T14:08:52.692Z,102265.81
2023-04-19T14:13:57.120Z,102258.47
2023-04-19T14:19:01.081Z,102236.97
2023-04-19T14:24:07.784Z,102233.53
2023-04-19T14:29:11.674Z,102241.38
2023-04-19T14:34:15.397Z,102228.34
2023-04-19T14:39:20.529Z,102217.84
2023-04-19T14:44:24.252Z,102212.06
2023-04-19T14:49:27.993Z,102202.38
2023-04-19T14:54:33.143Z,102202.50
2023-04-19T14:59:36.971Z,102196.22
2023-04-19T15:04:41.537Z,102195.16
2023-04-19T15:09:47.003Z,102175.41
2023-04-19T15:14:50.741Z,102173.34
2023-04-19T15:19:54.504Z,102171.72
2023-04-19T15:25:01.606Z,102177.72
2023-04-19T15:30:05.326Z,102164.22
2023-04-19T15:35:09.765Z,102172.03
2023-04-19T15:40:17.045Z,102162.94
2023-04-19T15:45:20.634Z,102164.94
2023-04-19T15:50:24.440Z,102153.81
2023-04-19T15:55:29.725Z,102155.25
2023-04-19T16:00:33.743Z,102152.91
2023-04-19T16:05:37.527Z,102145.97
2023-04-19T16:10:44.801Z,102140.59
2023-04-19T16:15:48.521Z,102142.41
2023-04-19T16:20:54.155Z,102147.81
2023-04-19T16:25:59.410Z,102161.94
2023-04-19T16:31:03.331Z,102145.16
2023-04-19T16:36:07.492Z,102144.25
2023-04-19T16:41:12.914Z,102133.50
2023-04-19T16:46:16.878Z,102130.72
2023-04-19T16:51:20.757Z,102134.22
2023-04-19T16:56:25.945Z,102118.81
2023-04-19T17:01:29.926Z,102122.16
2023-04-19T17:06:34.211Z,102120.03
2023-04-19T17:11:39.439Z,102135.63
2023-04-19T17:16:43.511Z,102127.59
2023-04-19T17:21:47.942Z,102115.56
2023-04-19T17:26:53.226Z,102114.87
2023-04-19T17:31:57.133Z,102111.81
2023-04-19T17:37:01.918Z,102115.06
2023-04-19T17:42:07.212Z,102117.81
2023-04-19T17:47:11.021Z,102113.06
2023-04-19T17:52:15.030Z,102109.22
2023-04-19T17:57:20.694Z,102114.69
2023-04-19T18:02:24.931Z,102120.97
2023-04-19T18:07:28.852Z,102113.03
2023-04-19T18:12:34.129Z,102119.75
2023-04-19T18:17:38.024Z,102120.75
2023-04-19T18:22:41.943Z,102114.94
2023-04-19T18:27:47.104Z,102123.84
2023-04-19T18:32:50.876Z,102116.50
2023-04-19T18:37:54.617Z,102123.12
2023-04-19T18:42:59.740Z,102122.41
2023-04-19T18:48:03.555Z,102132.38
2023-04-19T18:53:07.221Z,102139.56
2023-04-19T18:58:13.645Z,102148.47
2023-04-19T19:03:43.825Z,102144.06
2023-04-19T19:08:41.079Z,102152.78
2023-04-19T19:13:46.505Z,102157.22
2023-04-19T19:18:51.352Z,102164.44
2023-04-19T19:23:57.731Z,102170.28
2023-04-19T19:29:02.912Z,102178.31
2023-04-19T19:34:23.372Z,102181.94
2023-04-19T19:39:29.578Z,102180.72
2023-04-19T19:44:34.702Z,102193.88
2023-04-19T19:54:45.239Z,102192.50
2023-04-19T19:59:56.016Z,102197.72
2023-04-19T20:05:00.554Z,102199.91
2023-04-19T20:10:04.601Z,102202.56
2023-04-19T20:15:11.901Z,102201.84
2023-04-19T20:20:15.733Z,102207.34
2023-04-19T20:25:19.494Z,102210.50
2023-04-19T20:30:24.784Z,102216.94
2023-04-19T20:35:28.828Z,102218.75
2023-04-19T20:40:33.096Z,102222.97
2023-04-19T20:45:39.256Z,102222.72
2023-04-19T20:50:43.799Z,102221.16
2023-04-19T20:55:47.637Z,102230.81
2023-04-19T21:00:52.752Z,102230.91
2023-04-19T21:05:56.582Z,102227.81
2023-04-19T21:11:00.618Z,102238.59
2023-04-19T21:16:06.382Z,102233.31
2023-04-19T21:21:10.168Z,102232.63
2023-04-19T21:26:13.962Z,102235.31
2023-04-19T21:31:19.047Z,102239.94
2023-04-19T21:36:22.851Z,102239.25
2023-04-19T21:41:26.630Z,102247.47
2023-04-19T21:46:32.064Z,102234.16
2023-04-19T21:51:35.984Z,102234.91
2023-04-19T21:56:39.991Z,102241.44
2023-04-19T22:01:45.954Z,102249.22
2023-04-19T22:06:49.704Z,102245.12
2023-04-19T22:11:53.381Z,102242.97
2023-04-19T22:16:59.054Z,102245.78
2023-04-19T22:22:02.905Z,102239.72
2023-04-19T22:27:06.900Z,102252.59
2023-04-19T22:32:12.066Z,102246.91
2023-04-19T22:37:15.856Z,102242.94
2023-04-19T22:42:19.580Z,102243.75
2023-04-19T22:47:24.657Z,102235.16
2023-04-19T22:52:28.670Z,102235.78
2023-04-19T22:57:32.377Z,102237.37
2023-04-19T23:02:38.082Z,102236.47
2023-04-19T23:07:43.026Z,102229.72
2023-04-19T23:12:46.954Z,102226.44
2023-04-19T23:17:52.832Z,102223.06
2023-04-19T23:22:56.641Z,102217.72
2023-04-19T23:28:00.351Z,102215.34
2023-04-19T23:33:05.864Z,102211.62
2023-04-19T23:38:09.730Z,102208.69
2023-04-19T23:43:13.473Z,102209.37
2023-04-19T23:48:18.542Z,102204.59
2023-04-19T23:53:22.236Z,102210.03
2023-04-19T23:58:26.000Z,102199.06
